Time;durP1;ratioP1;P1;durP2;ratioP2;P2;SDS_P1;SDS_P2;PMS_P1;PMS_P2;Temp;Humidity;BMP_temperature;BMP_pressure;BME280_temperature;BME280_humidity;BME280_pressure;Samples;Min_cycle;Max_cycle;Signal;HPM_P1;HPM_P2
2023/04/30 00:00:22;;;;;;;0.50;0.50;;;;;;;9.74;94.50;97158.06;29395;236;63009;-56
2023/04/30 00:00:54;;;;;;;0.50;0.50;;;;;;;9.75;94.27;97156.97;29395;230;63005;-57
2023/04/30 00:01:25;;;;;;;0.50;0.50;;;;;;;9.76;94.10;97155.88;29395;302;63015;-56
2023/04/30 00:01:56;;;;;;;0.50;0.50;;;;;;;9.76;93.77;97158.59;29395;199;63005;-57
2023/04/30 00:02:29;;;;;;;0.50;0.50;;;;;;;9.77;94.04;97162.91;29394;198;64013;-56
2023/04/30 00:03:00;;;;;;;0.50;0.50;;;;;;;9.76;94.01;97161.28;29395;220;63005;-56
2023/04/30 00:03:31;;;;;;;0.50;0.50;;;;;;;9.77;94.11;97168.31;29395;203;63009;-58
2023/04/30 00:04:03;;;;;;;0.50;0.50;;;;;;;9.77;94.09;97160.19;29394;238;64009;-57
2023/04/30 00:04:35;;;;;;;0.50;0.50;;;;;;;9.78;93.95;97163.72;29395;224;63024;-58
2023/04/30 00:05:08;;;;;;;0.50;0.50;;;;;;;9.77;93.96;97157.50;29395;209;63004;-56
2023/04/30 00:05:39;;;;;;;0.50;0.50;;;;;;;9.75;93.79;97157.78;29395;242;63009;-58
2023/04/30 00:06:10;;;;;;;0.50;0.50;;;;;;;9.75;93.99;97157.78;29394;196;64004;-56
2023/04/30 00:06:42;;;;;;;0.50;0.50;;;;;;;9.75;93.88;97165.09;29395;210;63008;-56
2023/04/30 00:07:13;;;;;;;0.50;0.50;;;;;;;9.76;93.95;97158.59;29395;254;63004;-57
2023/04/30 00:07:44;;;;;;;0.50;0.50;;;;;;;9.74;94.15;97167.00;29395;214;63008;-57
2023/04/30 00:08:15;;;;;;;0.50;0.50;;;;;;;9.74;94.63;97158.06;29395;202;63005;-57
2023/04/30 00:08:47;;;;;;;0.50;0.50;;;;;;;9.74;94.61;97160.75;29395;202;63009;-59
2023/04/30 00:09:19;;;;;;;0.40;0.40;;;;;;;9.73;94.56;97167.25;29394;196;64009;-56
2023/04/30 00:09:50;;;;;;;0.50;0.50;;;;;;;9.73;95.38;97167.25;29395;247;63009;-56
2023/04/30 00:10:21;;;;;;;0.50;0.50;;;;;;;9.71;95.23;97158.59;29395;234;63014;-57
2023/04/30 00:10:52;;;;;;;0.50;0.50;;;;;;;9.69;95.10;97163.53;29395;227;63009;-57
2023/04/30 00:11:24;;;;;;;0.50;0.50;;;;;;;9.64;95.18;97161.66;29394;474;64009;-56
2023/04/30 00:11:55;;;;;;;0.50;0.50;;;;;;;9.65;95.16;97163.28;29395;248;63009;-56
2023/04/30 00:12:27;;;;;;;0.50;0.50;;;;;;;9.65;95.13;97162.47;29395;204;63004;-57
2023/04/30 00:12:58;;;;;;;0.50;0.50;;;;;;;9.66;95.09;97164.09;29395;281;63009;-56
2023/04/30 00:13:29;;;;;;;0.50;0.50;;;;;;;9.67;95.17;97157.56;29395;333;63004;-58
2023/04/30 00:14:00;;;;;;;0.50;0.50;;;;;;;9.66;94.86;97154.06;29394;196;64008;-57
2023/04/30 00:14:31;;;;;;;0.50;0.50;;;;;;;9.66;95.01;97161.38;29395;300;63004;-56
2023/04/30 00:15:03;;;;;;;0.50;0.50;;;;;;;9.66;94.87;97164.91;29395;422;63009;-57
2023/04/30 00:15:35;;;;;;;0.50;0.50;;;;;;;9.67;94.53;97160.28;29396;220;63005;-56
2023/04/30 00:16:08;;;;;;;0.50;0.50;;;;;;;9.66;95.12;97164.09;29395;218;63009;-56
2023/04/30 00:16:40;;;;;;;0.50;0.50;;;;;;;9.67;94.91;97168.41;29394;229;64009;-57
2023/04/30 00:17:11;;;;;;;0.50;0.50;;;;;;;9.66;95.08;97164.09;29395;234;63009;-56
2023/04/30 00:17:42;;;;;;;0.50;0.50;;;;;;;9.66;94.96;97164.91;29395;343;63005;-56
2023/04/30 00:18:13;;;;;;;0.50;0.50;;;;;;;9.67;95.22;97165.72;29395;258;63009;-57
2023/04/30 00:18:45;;;;;;;0.50;0.50;;;;;;;9.67;95.11;97160.28;29395;344;63005;-56
2023/04/30 00:19:16;;;;;;;0.50;0.50;;;;;;;9.66;94.93;97159.47;29394;197;64013;-56
2023/04/30 00:19:47;;;;;;;0.50;0.50;;;;;;;9.67;94.84;97166.50;29395;229;63004;-56
2023/04/30 00:20:18;;;;;;;0.50;0.50;;;;;;;9.68;94.36;97165.44;29394;242;64009;-56
2023/04/30 00:20:52;;;;;;;0.50;0.50;;;;;;;9.69;94.20;97158.09;29395;241;63004;-56
2023/04/30 00:21:23;;;;;;;0.50;0.50;;;;;;;9.69;94.14;97168.94;29395;365;63008;-56
2023/04/30 00:21:54;;;;;;;0.50;0.50;;;;;;;9.68;93.90;97164.63;29395;199;63004;-56
2023/04/30 00:22:25;;;;;;;0.50;0.50;;;;;;;9.68;93.87;97157.28;29395;243;63009;-56
2023/04/30 00:22:57;;;;;;;0.50;0.50;;;;;;;9.70;93.62;97165.16;29395;249;63005;-56
2023/04/30 00:23:28;;;;;;;0.50;0.50;;;;;;;9.70;93.40;97162.44;29395;216;63009;-56
2023/04/30 00:23:59;;;;;;;0.50;0.50;;;;;;;9.69;93.05;97164.34;29395;295;63005;-56
2023/04/30 00:24:31;;;;;;;0.50;0.50;;;;;;;9.70;93.07;97165.16;29394;259;64013;-56
2023/04/30 00:25:02;;;;;;;0.50;0.50;;;;;;;9.70;92.90;97165.16;29395;284;63005;-56
2023/04/30 00:25:34;;;;;;;0.50;0.50;;;;;;;9.71;92.62;97169.44;29395;235;63009;-56
2023/04/30 00:26:05;;;;;;;0.50;0.50;;;;;;;9.70;92.98;97159.72;29394;223;64005;-56
2023/04/30 00:26:37;;;;;;;0.50;0.50;;;;;;;9.70;92.97;97165.16;29395;202;63009;-58
2023/04/30 00:27:08;;;;;;;0.50;0.50;;;;;;;9.70;92.99;97159.72;29395;260;63004;-57
2023/04/30 00:27:39;;;;;;;0.50;0.50;;;;;;;9.71;92.98;97161.31;29395;215;63009;-56
2023/04/30 00:28:10;;;;;;;0.50;0.50;;;;;;;9.70;92.99;97160.50;29395;199;63004;-56
2023/04/30 00:28:42;;;;;;;0.50;0.50;;;;;;;9.71;93.25;97161.31;29395;201;63009;-58
2023/04/30 00:29:13;;;;;;;0.50;0.50;;;;;;;9.70;93.01;97163.22;29394;391;64008;-57
2023/04/30 00:29:45;;;;;;;0.50;0.50;;;;;;;9.71;92.95;97164.03;29395;249;63009;-58
2023/04/30 00:30:17;;;;;;;0.50;0.50;;;;;;;9.71;92.85;97161.31;29395;212;63005;-56
2023/04/30 00:30:48;;;;;;;0.50;0.50;;;;;;;9.72;92.96;97157.50;29395;259;63009;-57
2023/04/30 00:31:19;;;;;;;0.50;0.50;;;;;;;9.73;93.09;97165.37;29395;199;63005;-57
2023/04/30 00:31:50;;;;;;;0.50;0.50;;;;;;;9.72;93.07;97162.94;29395;221;63009;-57
2023/04/30 00:32:22;;;;;;;0.50;0.50;;;;;;;9.73;93.02;97162.66;29395;226;63005;-57
2023/04/30 00:32:53;;;;;;;0.43;0.43;;;;;;;9.72;92.83;97168.34;29395;260;63009;-58
2023/04/30 00:33:24;;;;;;;0.50;0.50;;;;;;;9.72;92.45;97162.94;29395;238;63007;-56
2023/04/30 00:33:56;;;;;;;0.50;0.50;;;;;;;9.71;92.50;97161.31;29395;245;63009;-56
2023/04/30 00:34:28;;;;;;;0.40;0.40;;;;;;;9.71;92.60;97166.75;29394;261;64009;-57
2023/04/30 00:34:59;;;;;;;0.50;0.50;;;;;;;9.70;92.96;97165.94;29395;270;63009;-56
2023/04/30 00:35:30;;;;;;;0.50;0.50;;;;;;;9.71;93.05;97166.75;29395;220;63004;-57
2023/04/30 00:36:02;;;;;;;0.40;0.40;;;;;;;9.70;93.22;97165.16;29395;221;63009;-59
2023/04/30 00:36:33;;;;;;;0.50;0.50;;;;;;;9.70;93.31;97165.16;29395;199;63004;-56
2023/04/30 00:37:04;;;;;;;0.50;0.50;;;;;;;9.71;93.07;97172.16;29395;218;63008;-56
2023/04/30 00:37:35;;;;;;;0.50;0.50;;;;;;;9.71;93.07;97164.03;29395;429;63005;-56
2023/04/30 00:38:07;;;;;;;0.50;0.50;;;;;;;9.70;92.94;97165.16;29395;263;63009;-57
2023/04/30 00:38:38;;;;;;;0.50;0.50;;;;;;;9.70;92.97;97160.50;29395;441;63005;-56
2023/04/30 00:39:10;;;;;;;0.50;0.50;;;;;;;9.71;92.97;97161.31;29395;409;63009;-56
2023/04/30 00:39:41;;;;;;;0.50;0.50;;;;;;;9.69;92.35;97168.94;29394;246;64009;-56
2023/04/30 00:40:12;;;;;;;0.50;0.50;;;;;;;9.68;92.61;97167.31;29395;202;63009;-57
2023/04/30 00:40:45;;;;;;;0.50;0.50;;;;;;;9.69;92.61;97163.53;29395;259;63014;-57
2023/04/30 00:41:17;;;;;;;0.50;0.50;;;;;;;9.69;92.74;97168.94;29395;249;63022;-56
2023/04/30 00:41:52;;;;;;;0.50;0.50;;;;;;;9.70;92.86;97170.56;29394;235;64009;-57
2023/04/30 00:42:23;;;;;;;0.50;0.50;;;;;;;9.69;92.71;97168.94;29395;368;63009;-57
2023/04/30 00:42:54;;;;;;;1.30;1.30;;;;;;;9.69;92.68;97163.53;29395;234;63004;-56
2023/04/30 00:43:26;;;;;;;0.50;0.50;;;;;;;9.68;92.82;97161.91;29395;251;63009;-56
2023/04/30 00:43:57;;;;;;;0.50;0.50;;;;;;;9.72;92.57;97162.94;29395;202;63004;-56
2023/04/30 00:44:28;;;;;;;0.50;0.50;;;;;;;9.71;92.66;97167.53;29395;250;63008;-57
2023/04/30 00:44:59;;;;;;;0.50;0.50;;;;;;;9.72;92.43;97163.75;29395;411;63005;-58
2023/04/30 00:45:30;;;;;;;0.50;0.50;;;;;;;9.73;92.30;97167.25;29395;442;63009;-56
2023/04/30 00:46:04;;;;;;;0.50;0.50;;;;;;;9.72;92.36;97173.78;29395;199;63005;-56
2023/04/30 00:46:35;;;;;;;0.50;0.50;;;;;;;9.70;92.24;97167.84;29395;291;63009;-57
2023/04/30 00:47:06;;;;;;;0.50;0.50;;;;;;;9.70;92.24;97170.56;29394;245;64009;-56
2023/04/30 00:47:41;;;;;;;0.50;0.50;;;;;;;9.70;92.25;97171.34;29395;262;63009;-56
2023/04/30 00:48:12;;;;;;;0.50;0.50;;;;;;;9.70;92.11;97173.28;29395;308;63005;-56
2023/04/30 00:48:44;;;;;;;0.50;0.50;;;;;;;9.68;92.03;97178.16;29396;489;63009;-59
2023/04/30 00:49:15;;;;;;;0.50;0.50;;;;;;;9.68;92.03;97167.31;29395;196;63004;-56
2023/04/30 00:49:47;;;;;;;0.50;0.50;;;;;;;9.66;91.81;97159.47;29395;253;63009;-57
2023/04/30 00:50:19;;;;;;;0.50;0.50;;;;;;;9.65;91.76;97168.69;29395;236;63004;-59
2023/04/30 00:50:50;;;;;;;0.50;0.50;;;;;;;9.65;91.86;97174.09;29395;203;63016;-56
2023/04/30 00:51:23;;;;;;;0.50;0.50;;;;;;;9.66;91.87;97166.78;29395;277;63004;-57
2023/04/30 00:51:55;;;;;;;0.50;0.50;;;;;;;9.66;91.93;97174.91;29395;304;63008;-58
2023/04/30 00:52:29;;;;;;;0.50;0.50;;;;;;;9.65;91.94;97171.41;29394;199;64009;-56
2023/04/30 00:53:00;;;;;;;0.50;0.50;;;;;;;9.63;92.15;97175.47;29395;379;63009;-56
2023/04/30 00:53:34;;;;;;;0.50;0.50;;;;;;;9.64;92.18;97177.09;29395;205;63005;-55
2023/04/30 00:54:06;;;;;;;0.50;0.50;;;;;;;9.62;91.94;97169.25;29395;249;63009;-56
2023/04/30 00:54:38;;;;;;;0.50;0.50;;;;;;;9.62;91.75;97179.28;29395;216;63005;-57
2023/04/30 00:55:12;;;;;;;0.50;0.50;;;;;;;9.60;91.50;97174.13;29394;221;64013;-56
2023/04/30 00:55:46;;;;;;;0.50;0.50;;;;;;;9.60;91.49;97165.19;29395;240;63014;-56
2023/04/30 00:56:20;;;;;;;0.50;0.50;;;;;;;9.62;91.35;97173.84;29395;433;63009;-60
2023/04/30 00:56:51;;;;;;;0.50;0.50;;;;;;;9.62;91.30;97168.44;29395;251;63004;-57
2023/04/30 00:57:24;;;;;;;0.50;0.50;;;;;;;9.64;91.54;97177.09;29395;219;63009;-58
2023/04/30 00:57:56;;;;;;;0.50;0.50;;;;;;;9.66;91.50;97169.50;29395;210;63004;-59
2023/04/30 00:58:27;;;;;;;0.50;0.50;;;;;;;9.66;91.58;97173.03;29395;206;63008;-55
2023/04/30 00:58:58;;;;;;;0.50;0.50;;;;;;;9.73;91.06;97169.97;29395;262;63004;-56
2023/04/30 00:59:31;;;;;;;0.50;0.50;;;;;;;9.75;90.44;97162.38;29395;292;63008;-56
2023/04/30 01:00:05;;;;;;;0.50;0.50;;;;;;;9.78;90.19;97175.38;29395;198;63005;-56
2023/04/30 01:00:36;;;;;;;0.43;0.43;;;;;;;9.77;90.10;97171.03;29394;235;64014;-56
2023/04/30 01:01:08;;;;;;;0.50;0.50;;;;;;;9.75;89.78;97173.22;29395;333;63005;-57
2023/04/30 01:01:40;;;;;;;0.50;0.50;;;;;;;9.75;89.76;97173.22;29395;216;63009;-57
2023/04/30 01:02:12;;;;;;;0.50;0.50;;;;;;;9.77;89.99;97168.31;29395;198;63005;-56
2023/04/30 01:02:43;;;;;;;0.50;0.50;;;;;;;9.78;89.62;97172.66;29395;223;63009;-56
2023/04/30 01:03:15;;;;;;;0.50;0.50;;;;;;;9.77;89.83;97176.47;29395;494;63014;-58
2023/04/30 01:03:46;;;;;;;0.50;0.50;;;;;;;9.75;90.05;97165.09;29395;217;63009;-56
2023/04/30 01:04:17;;;;;;;0.50;0.50;;;;;;;9.74;90.23;97168.88;29395;248;63004;-56
2023/04/30 01:04:50;;;;;;;0.50;0.50;;;;;;;9.72;90.44;97165.66;29395;264;63009;-58
2023/04/30 01:05:22;;;;;;;0.50;0.50;;;;;;;9.71;90.55;97166.75;29395;402;63004;-56
2023/04/30 01:05:54;;;;;;;0.50;0.50;;;;;;;9.70;90.61;97171.34;29394;344;64013;-56
2023/04/30 01:06:26;;;;;;;0.50;0.50;;;;;;;9.68;90.47;97167.31;29395;217;63004;-57
2023/04/30 01:07:01;;;;;;;0.50;0.50;;;;;;;9.68;90.37;97170.03;29395;206;63009;-57
2023/04/30 01:07:35;;;;;;;0.50;0.50;;;;;;;9.68;90.58;97172.75;29395;258;63005;-57
2023/04/30 01:08:08;;;;;;;0.50;0.50;;;;;;;9.66;90.77;97164.09;29394;221;64014;-56
2023/04/30 01:08:40;;;;;;;0.50;0.50;;;;;;;9.66;90.97;97164.09;29395;203;63005;-56
2023/04/30 01:09:14;;;;;;;0.50;0.50;;;;;;;9.66;91.06;97166.78;29395;437;63017;-57
2023/04/30 01:09:46;;;;;;;0.50;0.50;;;;;;;9.66;91.39;97166.78;29395;214;63005;-57
2023/04/30 01:10:18;;;;;;;0.50;0.50;;;;;;;9.65;91.10;97176.81;29395;264;63008;-56
2023/04/30 01:11:34;;;;;;;0.50;0.50;;;;;;;9.67;91.55;97171.94;29395;200;63005;-57
2023/04/30 01:12:15;;;;;;;0.50;0.50;;;;;;;9.67;91.46;97171.13;29395;219;63009;-56
2023/04/30 01:13:20;;;;;;;0.50;0.50;;;;;;;9.66;91.46;97175.72;29395;240;63004;-56
2023/04/30 01:14:11;;;;;;;0.50;0.50;;;;;;;9.66;91.30;97164.09;29394;334;64013;-59
2023/04/30 01:15:14;;;;;;;0.55;0.55;;;;;;;9.65;91.16;97176.00;29417;234;63008;-56
2023/04/30 01:15:56;;;;;;;0.50;0.50;;;;;;;9.65;91.22;97167.88;29395;199;63009;-56
2023/04/30 01:16:32;;;;;;;0.50;0.50;;;;;;;9.65;91.31;97173.31;29395;232;63005;-56
2023/04/30 01:17:25;;;;;;;0.50;0.50;;;;;;;9.63;91.10;97170.88;29395;203;63009;-56
2023/04/30 01:18:07;;;;;;;0.50;0.50;;;;;;;9.63;91.05;97165.44;29395;228;63005;-57
2023/04/30 01:18:45;;;;;;;0.50;0.50;;;;;;;9.63;90.89;97160.03;29395;256;63009;-57
2023/04/30 01:19:48;;;;;;;0.50;0.50;;;;;;;9.62;90.80;97168.44;29394;280;64009;-56
2023/04/30 01:20:25;;;;;;;0.50;0.50;;;;;;;9.62;90.73;97163.03;29394;218;64013;-57
2023/04/30 01:21:04;;;;;;;0.50;0.50;;;;;;;9.59;90.54;97158.16;29395;395;63014;-57
2023/04/30 01:21:40;;;;;;;0.50;0.50;;;;;;;9.59;90.74;97163.56;29395;197;63008;-56
2023/04/30 01:22:38;;;;;;;0.50;0.50;;;;;;;9.59;90.43;97155.44;29395;247;63005;-56
2023/04/30 01:23:27;;;;;;;0.50;0.50;;;;;;;9.57;90.41;97165.75;29395;263;63009;-56
2023/04/30 01:24:48;;;;;;;0.50;0.50;;;;;;;9.56;90.40;97159.53;29395;199;63005;-56
2023/04/30 01:26:23;;;;;;;0.50;0.50;;;;;;;9.57;90.89;97160.34;29394;221;64013;-57
2023/04/30 01:27:28;;;;;;;0.50;0.50;;;;;;;9.56;91.33;97159.53;29395;235;63014;-56
2023/04/30 01:28:16;;;;;;;0.50;0.50;;;;;;;9.54;91.65;97160.88;29395;261;63009;-56
2023/04/30 01:28:52;;;;;;;0.50;0.50;;;;;;;9.52;91.50;97160.34;29395;239;63004;-56
2023/04/30 01:29:26;;;;;;;0.50;0.50;;;;;;;9.53;91.29;97159.28;29395;196;63009;-56
2023/04/30 01:29:58;;;;;;;0.50;0.50;;;;;;;9.51;91.51;97162.25;29395;204;63010;-57
2023/04/30 01:30:31;;;;;;;0.50;0.50;;;;;;;9.52;91.89;97157.66;29394;301;64014;-56
2023/04/30 01:31:02;;;;;;;0.50;0.50;;;;;;;9.51;91.45;97156.84;29394;254;64001;-57
2023/04/30 01:31:34;;;;;;;0.50;0.50;;;;;;;9.52;91.74;97154.94;29395;259;63009;-56
2023/04/30 01:32:05;;;;;;;0.50;0.50;;;;;;;9.52;91.67;97163.06;29394;214;64009;-56
2023/04/30 01:32:37;;;;;;;0.50;0.50;;;;;;;9.52;92.00;97152.22;29395;258;63009;-56
2023/04/30 01:33:08;;;;;;;0.50;0.50;;;;;;;9.52;91.67;97154.94;29395;360;63005;-56
2023/04/30 01:33:39;;;;;;;0.50;0.50;;;;;;;9.53;91.67;97159.28;29395;220;63009;-56
2023/04/30 01:34:10;;;;;;;0.50;0.50;;;;;;;9.53;91.81;97160.09;29395;237;63004;-56
2023/04/30 01:34:42;;;;;;;0.50;0.50;;;;;;;9.53;91.80;97159.28;29395;450;63009;-57
2023/04/30 01:35:13;;;;;;;0.50;0.50;;;;;;;9.53;91.64;97154.66;29395;234;63004;-56
2023/04/30 01:36:27;;;;;;;0.50;0.50;;;;;;;9.53;91.83;97162.78;29395;233;63009;-57
2023/04/30 01:37:28;;;;;;;0.50;0.50;;;;;;;9.53;91.65;97153.84;29395;228;63005;-56
2023/04/30 01:38:47;;;;;;;0.50;0.50;;;;;;;9.51;91.60;97150.63;29394;211;64014;-57
2023/04/30 01:40:05;;;;;;;0.50;0.50;;;;;;;9.50;91.64;97155.22;29395;236;63005;-55
2023/04/30 01:41:07;;;;;;;0.50;0.50;;;;;;;9.50;92.00;97151.69;29395;266;63017;-55
2023/04/30 01:42:06;;;;;;;0.60;0.60;;;;;;;9.48;92.02;97157.41;29395;198;63013;-55
2023/04/30 01:42:56;;;;;;;0.50;0.50;;;;;;;9.50;91.50;97149.00;29394;245;64013;-56
2023/04/30 01:43:47;;;;;;;0.50;0.50;;;;;;;9.47;91.16;97150.34;29395;259;63004;-55
2023/04/30 01:45:11;;;;;;;0.50;0.50;;;;;;;9.47;91.08;97150.34;29395;210;63008;-55
2023/04/30 01:46:18;;;;;;;0.50;0.50;;;;;;;9.47;90.81;97155.78;29395;257;63005;-56
2023/04/30 01:47:04;;;;;;;0.50;0.50;;;;;;;9.45;90.82;97159.84;29395;235;63026;-56
2023/04/30 01:47:56;;;;;;;0.50;0.50;;;;;;;9.44;90.91;97159.03;29395;219;63005;-56
2023/04/30 01:48:54;;;;;;;0.50;0.50;;;;;;;9.43;90.97;97154.72;29394;249;64030;-56
2023/04/30 01:49:46;;;;;;;0.50;0.50;;;;;;;9.43;91.09;97160.13;29395;243;63006;-56
2023/04/30 01:50:38;;;;;;;2.25;2.15;;;;;;;9.43;90.98;97153.91;29417;226;63009;-56
2023/04/30 01:51:32;;;;;;;0.50;0.50;;;;;;;9.41;91.07;97152.28;29395;203;63017;-56
2023/04/30 01:52:17;;;;;;;0.50;0.50;;;;;;;9.39;91.77;97157.16;29395;207;63009;-56
2023/04/30 01:53:01;;;;;;;0.50;0.50;;;;;;;9.38;91.48;97155.53;29395;260;63005;-56
2023/04/30 01:53:39;;;;;;;0.50;0.50;;;;;;;9.38;91.52;97160.97;29394;200;64014;-57
2023/04/30 01:54:25;;;;;;;0.50;0.50;;;;;;;9.37;91.37;97156.63;29395;208;63005;-56
2023/04/30 01:55:06;;;;;;;0.50;0.50;;;;;;;9.37;91.27;97167.47;29395;219;63009;-58
2023/04/30 01:55:57;;;;;;;0.50;0.50;;;;;;;9.36;91.62;97160.44;29417;199;63005;-56
2023/04/30 01:56:36;;;;;;;0.50;0.50;;;;;;;9.36;91.74;97157.72;29395;219;63009;-56
2023/04/30 01:57:16;;;;;;;0.50;0.50;;;;;;;9.35;91.63;97150.72;29439;299;63004;-56
2023/04/30 01:57:59;;;;;;;0.50;0.50;;;;;;;9.36;91.38;97163.13;29394;245;64013;-56
2023/04/30 01:58:31;;;;;;;0.50;0.50;;;;;;;9.37;91.49;97158.53;29395;266;63004;-57
2023/04/30 01:59:04;;;;;;;0.50;0.50;;;;;;;9.38;91.36;97160.97;29395;259;63008;-56
2023/04/30 01:59:38;;;;;;;0.50;0.50;;;;;;;9.39;91.34;97153.66;29395;203;63005;-57
2023/04/30 02:00:10;;;;;;;0.50;0.50;;;;;;;9.38;91.12;97152.84;29395;248;63009;-56
2023/04/30 02:00:42;;;;;;;0.50;0.50;;;;;;;9.38;91.14;97152.84;29395;202;63005;-56
2023/04/30 02:01:31;;;;;;;0.50;0.50;;;;;;;9.37;91.04;97162.03;29394;204;64003;-56
2023/04/30 02:02:04;;;;;;;0.50;0.50;;;;;;;9.37;90.63;97156.63;29395;246;63005;-56
2023/04/30 02:02:35;;;;;;;0.50;0.50;;;;;;;9.36;90.15;97154.19;29394;216;64013;-56
2023/04/30 02:03:07;;;;;;;0.50;0.50;;;;;;;9.34;90.39;97153.69;29395;295;63009;-56
2023/04/30 02:03:38;;;;;;;0.50;0.50;;;;;;;9.34;90.23;97157.22;29394;220;64009;-56
2023/04/30 02:04:10;;;;;;;0.50;0.50;;;;;;;9.36;90.63;97157.72;29395;239;63004;-57
2023/04/30 02:04:41;;;;;;;0.50;0.50;;;;;;;9.37;90.76;97153.91;29395;202;63012;-56
2023/04/30 02:05:13;;;;;;;0.50;0.50;;;;;;;9.38;90.60;97163.66;29395;202;63004;-56
2023/04/30 02:05:44;;;;;;;0.50;0.50;;;;;;;9.38;90.73;97152.84;29395;278;63008;-57
2023/04/30 02:06:15;;;;;;;0.50;0.50;;;;;;;9.39;90.73;97157.16;29395;201;63004;-55
2023/04/30 02:06:46;;;;;;;0.50;0.50;;;;;;;9.38;89.29;97158.25;29395;213;63008;-56
2023/04/30 02:07:41;;;;;;;0.50;0.50;;;;;;;9.40;89.05;97152.56;29395;198;63005;-56
2023/04/30 02:08:12;;;;;;;0.50;0.50;;;;;;;9.36;88.93;97155.00;29394;215;64013;-56
2023/04/30 02:08:44;;;;;;;0.50;0.50;;;;;;;9.36;89.23;97156.91;29395;197;63011;-57
2023/04/30 02:09:15;;;;;;;0.50;0.50;;;;;;;9.35;89.27;97158.03;29395;202;63009;-56
2023/04/30 02:09:46;;;;;;;0.50;0.50;;;;;;;9.34;89.48;97156.41;29395;294;63005;-55
2023/04/30 02:10:21;;;;;;;0.50;0.50;;;;;;;9.34;89.10;97159.13;29395;202;63009;-58
2023/04/30 02:10:53;;;;;;;0.50;0.50;;;;;;;9.34;89.14;97156.41;29395;196;63004;-55
2023/04/30 02:11:24;;;;;;;0.50;0.50;;;;;;;9.36;89.36;97163.13;29395;266;63009;-55
2023/04/30 02:11:56;;;;;;;0.50;0.50;;;;;;;9.38;89.39;97155.53;29395;250;63004;-55
2023/04/30 02:12:29;;;;;;;0.50;0.50;;;;;;;9.40;89.44;97161.50;29395;294;63009;-56
2023/04/30 02:13:00;;;;;;;0.50;0.50;;;;;;;9.41;89.07;97165.00;29394;202;64008;-55
2023/04/30 02:13:31;;;;;;;0.50;0.50;;;;;;;9.43;89.29;97164.72;29395;424;63008;-56
2023/04/30 02:14:02;;;;;;;0.50;0.50;;;;;;;9.38;89.57;97157.44;29395;226;63005;-56
2023/04/30 02:14:33;;;;;;;0.50;0.50;;;;;;;9.43;89.49;97164.72;29395;225;63009;-55
2023/04/30 02:15:06;;;;;;;0.50;0.50;;;;;;;9.41;89.60;97163.13;29395;391;63005;-56
2023/04/30 02:15:39;;;;;;;0.50;0.50;;;;;;;9.43;89.68;97159.31;29395;202;63009;-55
2023/04/30 02:16:11;;;;;;;0.50;0.50;;;;;;;9.41;90.41;97167.72;29394;336;64009;-55
2023/04/30 02:17:47;;;;;;;0.50;0.50;;;;;;;9.38;90.00;97157.44;88182;241;64005;-89
2023/04/30 02:18:19;;;;;;;0.50;0.50;;;;;;;9.36;89.49;97160.44;29394;203;64009;-92
2023/04/30 02:18:51;;;;;;;0.50;0.50;;;;;;;9.35;89.94;97156.13;29395;395;63005;-89
2023/04/30 02:19:22;;;;;;;0.50;0.50;;;;;;;9.38;89.89;97165.56;29395;202;63009;-90
2023/04/30 02:19:54;;;;;;;0.50;0.50;;;;;;;9.39;89.83;97165.28;29395;353;63005;-90
2023/04/30 02:20:26;;;;;;;0.50;0.50;;;;;;;9.39;89.35;97165.28;29394;218;64013;-90
2023/04/30 02:20:59;;;;;;;0.50;0.50;;;;;;;9.39;89.32;97153.66;29395;278;63005;-93
2023/04/30 02:21:31;;;;;;;0.50;0.50;;;;;;;9.39;89.16;97159.88;29395;460;63010;-92
2023/04/30 02:22:03;;;;;;;0.50;0.50;;;;;;;9.38;89.30;97158.25;29395;231;63005;-91
2023/04/30 02:22:36;;;;;;;0.50;0.50;;;;;;;9.39;89.26;97156.34;29395;315;63009;-91
2023/04/30 02:23:08;;;;;;;0.50;0.50;;;;;;;9.38;89.18;97160.97;29395;238;63004;-91
2023/04/30 02:23:48;;;;;;;0.50;0.50;;;;;;;9.37;89.38;97153.09;29395;276;63009;-91
2023/04/30 02:24:20;;;;;;;0.50;0.50;;;;;;;9.37;88.81;97156.63;29395;249;63004;-89
2023/04/30 02:24:54;;;;;;;0.50;0.50;;;;;;;9.36;88.48;97151.50;29395;267;63020;-89
2023/04/30 02:25:27;;;;;;;0.50;0.50;;;;;;;9.33;88.26;97158.31;29394;206;64008;-91
2023/04/30 02:25:58;;;;;;;0.50;0.50;;;;;;;9.32;88.43;97159.38;29395;244;63009;-89
2023/04/30 02:26:29;;;;;;;0.50;0.50;;;;;;;9.31;88.54;97157.75;29395;273;63005;-90
2023/04/30 02:27:03;;;;;;;0.50;0.50;;;;;;;9.30;88.80;97145.31;29395;273;63009;-90
2023/04/30 02:27:34;;;;;;;0.50;0.50;;;;;;;9.29;88.84;97154.53;29395;256;63005;-90
2023/04/30 02:28:07;;;;;;;0.50;0.50;;;;;;;9.28;89.04;97155.63;29395;232;63009;-90
2023/04/30 02:28:39;;;;;;;0.50;0.50;;;;;;;9.28;89.20;97158.31;29395;250;63005;-90
2023/04/30 02:29:10;;;;;;;0.50;0.50;;;;;;;9.30;89.27;97155.34;29394;229;64013;-89
2023/04/30 02:29:42;;;;;;;0.50;0.50;;;;;;;9.31;89.20;97151.53;29395;197;63005;-91
2023/04/30 02:30:13;;;;;;;0.50;0.50;;;;;;;9.31;89.18;97152.34;29395;243;63009;-90
2023/04/30 02:30:45;;;;;;;0.50;0.50;;;;;;;9.31;89.37;97152.34;29395;479;63004;-89
2023/04/30 02:31:16;;;;;;;0.50;0.50;;;;;;;9.31;89.39;97152.34;29395;383;63009;-90
2023/04/30 02:31:47;;;;;;;0.50;0.50;;;;;;;9.32;89.45;97153.97;29395;235;63004;-91
2023/04/30 02:32:19;;;;;;;0.50;0.50;;;;;;;9.32;89.21;97151.25;29395;196;63008;-90
2023/04/30 02:32:51;;;;;;;0.50;0.50;;;;;;;9.32;89.55;97153.97;29395;228;63004;-91
2023/04/30 02:33:23;;;;;;;0.50;0.50;;;;;;;9.32;89.38;97153.16;29395;203;63009;-90
2023/04/30 02:33:54;;;;;;;0.50;0.50;;;;;;;9.29;89.63;97153.72;29395;410;63005;-93
2023/04/30 02:34:25;;;;;;;0.50;0.50;;;;;;;9.28;89.39;97155.63;29394;203;64014;-92
2023/04/30 02:34:57;;;;;;;0.50;0.50;;;;;;;9.28;89.17;97152.91;29395;244;63005;-92
2023/04/30 02:35:28;;;;;;;0.50;0.50;;;;;;;9.27;89.16;97156.69;29395;248;63009;-93
2023/04/30 02:36:00;;;;;;;0.50;0.50;;;;;;;9.27;89.33;97150.47;29395;215;63005;-92
2023/04/30 02:36:35;;;;;;;0.50;0.50;;;;;;;9.27;89.18;97145.88;29395;243;63009;-91
2023/04/30 02:37:08;;;;;;;0.50;0.50;;;;;;;9.26;89.38;97144.25;29395;229;63004;-90
2023/04/30 02:37:39;;;;;;;0.50;0.50;;;;;;;9.27;89.27;97147.75;29394;253;64013;-90
2023/04/30 02:38:11;;;;;;;0.50;0.50;;;;;;;9.27;89.47;97150.47;29394;259;64004;-91
2023/04/30 02:38:42;;;;;;;0.50;0.50;;;;;;;9.27;89.56;97150.47;29395;384;63009;-89
2023/04/30 02:39:13;;;;;;;0.50;0.50;;;;;;;9.27;89.73;97151.28;29395;303;63004;-89
2023/04/30 02:39:44;;;;;;;0.50;0.50;;;;;;;9.27;89.69;97151.28;29395;261;63008;-89
2023/04/30 02:40:16;;;;;;;0.50;0.50;;;;;;;9.25;89.91;97153.47;29395;196;63004;-90
2023/04/30 02:40:47;;;;;;;0.50;0.50;;;;;;;9.23;89.69;97150.22;29395;262;63016;-91
2023/04/30 02:41:19;;;;;;;0.50;0.50;;;;;;;9.23;90.22;97155.63;29395;205;63005;-91
2023/04/30 02:41:51;;;;;;;0.50;0.50;;;;;;;9.22;90.05;97154.00;29395;274;63009;-90
2023/04/30 02:42:23;;;;;;;0.50;0.50;;;;;;;9.20;90.02;97148.06;29395;198;63005;-90
2023/04/30 02:42:55;;;;;;;0.50;0.50;;;;;;;9.20;90.01;97150.78;29394;202;64013;-90
2023/04/30 02:43:27;;;;;;;0.50;0.50;;;;;;;9.20;89.82;97150.78;29395;231;63005;-91
2023/04/30 02:43:58;;;;;;;0.50;0.50;;;;;;;9.19;89.35;97148.34;29395;231;63009;-89
2023/04/30 02:44:29;;;;;;;0.50;0.50;;;;;;;9.18;89.05;97152.13;29395;218;63004;-92
2023/04/30 02:45:02;;;;;;;0.50;0.50;;;;;;;9.18;89.74;97152.13;29394;441;64013;-90
2023/04/30 02:45:33;;;;;;;0.50;0.50;;;;;;;9.17;90.21;97151.31;29395;221;63004;-91
2023/04/30 02:46:05;;;;;;;0.50;0.50;;;;;;;9.18;90.29;97147.53;29395;272;63009;-91
2023/04/30 02:46:36;;;;;;;0.50;0.50;;;;;;;9.17;90.39;97156.72;29395;246;63004;-91
2023/04/30 02:47:14;;;;;;;0.50;0.50;;;;;;;9.17;90.20;97155.94;29395;246;63008;-89
2023/04/30 02:47:45;;;;;;;0.50;0.50;;;;;;;9.15;90.63;97150.78;29395;254;63005;-90
2023/04/30 02:48:16;;;;;;;0.50;0.50;;;;;;;9.15;90.42;97156.19;29395;216;63009;-90
2023/04/30 02:48:47;;;;;;;0.50;0.50;;;;;;;9.15;90.67;97150.78;29395;226;63005;-91
2023/04/30 02:49:21;;;;;;;0.93;0.93;;;;;;;9.14;91.24;97151.88;29395;211;63009;-89
2023/04/30 02:49:52;;;;;;;0.50;0.50;;;;;;;9.15;91.72;97150.78;29395;268;63007;-89
2023/04/30 02:50:24;;;;;;;0.50;0.50;;;;;;;9.15;91.84;97150.78;29394;272;64013;-90
2023/04/30 02:50:56;;;;;;;0.50;0.50;;;;;;;9.16;92.00;97155.12;29394;287;64009;-90
2023/04/30 02:51:27;;;;;;;0.50;0.50;;;;;;;9.16;92.25;97155.12;29395;254;63009;-91
2023/04/30 02:51:59;;;;;;;0.50;0.50;;;;;;;9.16;92.22;97157.81;29395;197;63016;-89
2023/04/30 02:52:31;;;;;;;0.50;0.50;;;;;;;9.15;91.91;97153.50;29395;252;63009;-89